Time;durP1;ratioP1;P1;durP2;ratioP2;P2;SDS_P1;SDS_P2;PMS_P1;PMS_P2;Temp;Humidity;BMP_temperature;BMP_pressure;BME280_temperature;BME280_humidity;BME280_pressure;Samples;Min_cycle;Max_cycle;Signal;HPM_P1;HPM_P2
2021/01/21 00:03:16;;;;;;;8.17;3.40;;;;;;;;;;10379783;28;20245;-69
2021/01/21 00:08:18;;;;;;;6.27;2.57;;;;;;;;;;10384780;28;20191;-67
2021/01/21 00:13:20;;;;;;;4.90;2.13;;;;;;;;;;10380845;28;20203;-68
2021/01/21 00:18:22;;;;;;;2.23;1.37;;;;;;;;;;10379698;28;20970;-68
2021/01/21 00:23:24;;;;;;;6.13;2.00;;;;;;;;;;10376130;28;20194;-71
2021/01/21 00:28:25;;;;;;;4.27;1.77;;;;;;;;;;10364515;28;20214;-70
2021/01/21 00:33:28;;;;;;;4.40;1.83;;;;;;;;;;10357326;28;20282;-70
2021/01/21 00:38:30;;;;;;;4.93;1.60;;;;;;;;;;10356853;28;20301;-70
2021/01/21 00:43:31;;;;;;;3.83;1.60;;;;;;;;;;10363200;28;20269;-70
2021/01/21 00:48:34;;;;;;;2.93;1.23;;;;;;;;;;10362347;28;20301;-71
2021/01/21 00:53:35;;;;;;;2.67;1.10;;;;;;;;;;10359999;28;20222;-70
2021/01/21 00:58:37;;;;;;;3.57;1.70;;;;;;;;;;10360945;28;20272;-69
2021/01/21 01:03:39;;;;;;;3.30;1.50;;;;;;;;;;10364060;28;20495;-70
2021/01/21 01:08:41;;;;;;;4.07;1.60;;;;;;;;;;10363823;28;20218;-71
2021/01/21 01:13:42;;;;;;;5.20;1.80;;;;;;;;;;10360114;28;20202;-71
2021/01/21 01:18:45;;;;;;;3.30;1.40;;;;;;;;;;10364466;28;20246;-71
2021/01/21 01:23:47;;;;;;;3.47;1.50;;;;;;;;;;10362017;28;20290;-71
2021/01/21 01:28:49;;;;;;;4.47;2.00;;;;;;;;;;10356679;28;20222;-70
2021/01/21 01:33:52;;;;;;;4.10;1.67;;;;;;;;;;10364764;28;20248;-71
2021/01/21 01:38:53;;;;;;;4.20;1.87;;;;;;;;;;10357438;28;20340;-71
2021/01/21 01:43:55;;;;;;;4.23;1.90;;;;;;;;;;10365264;28;20556;-70
2021/01/21 01:48:58;;;;;;;3.50;1.80;;;;;;;;;;10344221;28;20225;-70
2021/01/21 01:54:04;;;;;;;4.50;1.80;;;;;;;;;;10364280;28;20198;-69
2021/01/21 01:59:06;;;;;;;4.13;1.90;;;;;;;;;;10361356;28;20246;-71
2021/01/21 02:04:09;;;;;;;3.40;1.73;;;;;;;;;;10366568;28;20666;-71
2021/01/21 02:09:11;;;;;;;4.30;1.90;;;;;;;;;;10363827;28;20300;-71
2021/01/21 02:14:17;;;;;;;4.70;1.80;;;;;;;;;;10351440;28;20195;-71
2021/01/21 02:19:48;;;;;;;4.93;1.77;;;;;;;;;;10352537;28;20280;-71
2021/01/21 02:25:05;;;;;;;4.93;1.90;;;;;;;;;;10365132;28;20201;-71
2021/01/21 02:30:13;;;;;;;4.40;1.80;;;;;;;;;;10352388;28;20970;-72
2021/01/21 02:35:17;;;;;;;4.10;1.80;;;;;;;;;;10353610;28;20272;-70
2021/01/21 02:40:20;;;;;;;3.50;1.57;;;;;;;;;;10359919;28;20753;-72
2021/01/21 02:45:22;;;;;;;5.30;1.90;;;;;;;;;;10355384;28;20292;-71
2021/01/21 02:50:24;;;;;;;5.63;1.97;;;;;;;;;;10353159;28;20242;-71
2021/01/21 02:55:31;;;;;;;5.03;1.90;;;;;;;;;;10362636;28;20232;-72
2021/01/21 03:00:33;;;;;;;3.97;1.80;;;;;;;;;;10334034;28;20671;-70
2021/01/21 03:05:36;;;;;;;3.70;1.70;;;;;;;;;;10361127;28;20194;-71
2021/01/21 03:10:38;;;;;;;3.80;2.00;;;;;;;;;;10359515;28;20280;-71
2021/01/21 03:15:39;;;;;;;3.37;1.63;;;;;;;;;;10357588;28;20301;-71
2021/01/21 03:20:42;;;;;;;5.27;2.00;;;;;;;;;;10370692;28;20225;-71
2021/01/21 03:25:44;;;;;;;4.90;1.90;;;;;;;;;;10361127;28;20194;-71
2021/01/21 03:30:45;;;;;;;4.93;1.73;;;;;;;;;;10371870;28;20218;-71
2021/01/21 03:35:48;;;;;;;4.63;1.90;;;;;;;;;;10364237;28;20542;-71
2021/01/21 03:40:49;;;;;;;4.63;2.10;;;;;;;;;;10373332;28;20582;-73
2021/01/21 03:45:51;;;;;;;4.97;2.00;;;;;;;;;;10361562;28;20246;-70
2021/01/21 03:50:53;;;;;;;4.23;2.03;;;;;;;;;;10370398;28;20222;-72
2021/01/21 03:55:55;;;;;;;4.30;1.83;;;;;;;;;;10369811;28;20622;-68
2021/01/21 04:00:56;;;;;;;5.00;2.07;;;;;;;;;;10367411;28;20221;-69
2021/01/21 04:05:59;;;;;;;4.23;1.90;;;;;;;;;;10357722;28;20289;-70
2021/01/21 04:11:03;;;;;;;5.67;2.20;;;;;;;;;;10364056;28;20219;-69
2021/01/21 04:16:05;;;;;;;4.90;1.90;;;;;;;;;;10367402;28;20244;-69
2021/01/21 04:21:07;;;;;;;6.73;2.47;;;;;;;;;;10363104;28;20335;-70
2021/01/21 04:26:09;;;;;;;7.37;2.70;;;;;;;;;;10366899;28;20202;-70
2021/01/21 04:31:11;;;;;;;7.17;2.60;;;;;;;;;;10366038;28;20696;-70
2021/01/21 04:36:14;;;;;;;6.17;2.60;;;;;;;;;;10363127;28;21054;-71
2021/01/21 04:41:16;;;;;;;7.40;2.20;;;;;;;;;;10364458;28;20246;-70
2021/01/21 04:46:18;;;;;;;4.47;1.90;;;;;;;;;;10363916;28;20623;-70
2021/01/21 04:51:21;;;;;;;4.63;1.90;;;;;;;;;;10362784;28;20646;-71
2021/01/21 04:56:25;;;;;;;7.33;2.20;;;;;;;;;;10354099;28;20245;-68
2021/01/21 05:01:27;;;;;;;6.80;2.60;;;;;;;;;;10366839;28;20240;-70
2021/01/21 05:06:29;;;;;;;6.67;2.50;;;;;;;;;;10366956;28;20285;-70
2021/01/21 05:11:31;;;;;;;6.57;2.57;;;;;;;;;;10360803;28;20284;-70
2021/01/21 05:16:33;;;;;;;5.80;2.43;;;;;;;;;;10364088;28;20252;-70
2021/01/21 05:21:37;;;;;;;7.40;3.23;;;;;;;;;;10360406;28;20701;-71
2021/01/21 05:26:39;;;;;;;7.43;3.30;;;;;;;;;;10360294;28;20215;-71
2021/01/21 05:31:41;;;;;;;6.33;2.80;;;;;;;;;;10361606;28;20590;-72
2021/01/21 05:36:45;;;;;;;8.17;3.40;;;;;;;;;;10368933;28;20214;-71
2021/01/21 05:41:47;;;;;;;7.17;3.07;;;;;;;;;;10360260;28;20596;-71
2021/01/21 05:46:51;;;;;;;7.17;3.23;;;;;;;;;;10349762;28;20210;-71
2021/01/21 05:51:55;;;;;;;7.87;3.20;;;;;;;;;;10352805;28;20218;-72
2021/01/21 05:56:57;;;;;;;7.73;2.80;;;;;;;;;;10363475;28;20245;-70
2021/01/21 06:01:58;;;;;;;6.77;3.20;;;;;;;;;;10362335;28;20226;-70
2021/01/21 06:07:03;;;;;;;5.93;2.80;;;;;;;;;;10359691;28;20560;-71
2021/01/21 06:12:05;;;;;;;7.20;3.23;;;;;;;;;;10344561;28;20257;-70
2021/01/21 06:17:07;;;;;;;6.77;2.67;;;;;;;;;;10358819;28;20597;-71
2021/01/21 06:22:10;;;;;;;7.13;2.67;;;;;;;;;;10359334;28;20304;-70
2021/01/21 06:27:14;;;;;;;6.93;2.77;;;;;;;;;;10362157;28;20190;-71
2021/01/21 06:32:17;;;;;;;6.87;2.93;;;;;;;;;;10371509;28;20261;-72
2021/01/21 06:37:21;;;;;;;7.07;2.50;;;;;;;;;;10364294;28;20285;-70
2021/01/21 06:42:26;;;;;;;3.77;1.57;;;;;;;;;;10362053;28;20519;-70
2021/01/21 06:47:28;;;;;;;5.07;1.60;;;;;;;;;;10357467;28;20203;-70
2021/01/21 06:52:32;;;;;;;6.47;2.03;;;;;;;;;;10365705;28;20245;-71
2021/01/21 06:57:41;;;;;;;5.30;1.70;;;;;;;;;;10339595;28;20293;-69
2021/01/21 07:02:44;;;;;;;3.17;1.23;;;;;;;;;;10340571;28;20694;-70
2021/01/21 07:08:13;;;;;;;4.27;1.27;;;;;;;;;;10369515;28;20235;-72
2021/01/21 07:13:17;;;;;;;3.43;1.20;;;;;;;;;;10350922;28;20207;-70
2021/01/21 07:18:20;;;;;;;2.03;0.90;;;;;;;;;;10370722;28;20207;-71
2021/01/21 07:23:23;;;;;;;3.53;1.20;;;;;;;;;;10376409;28;20618;-71
2021/01/21 07:28:26;;;;;;;3.53;1.40;;;;;;;;;;10364478;28;20650;-70
2021/01/21 07:33:30;;;;;;;6.93;2.07;;;;;;;;;;10363943;28;20638;-71
2021/01/21 07:38:51;;;;;;;6.10;2.00;;;;;;;;;;10373608;28;20225;-71
2021/01/21 07:43:55;;;;;;;7.07;2.30;;;;;;;;;;10346702;28;20203;-71
2021/01/21 07:49:15;;;;;;;5.40;1.60;;;;;;;;;;10359190;28;20266;-69
2021/01/21 07:54:17;;;;;;;7.17;1.50;;;;;;;;;;10366072;28;20245;-70
2021/01/21 07:59:19;;;;;;;4.23;1.50;;;;;;;;;;10348044;28;20226;-70
2021/01/21 08:04:21;;;;;;;5.27;1.90;;;;;;;;;;10350688;28;20206;-70
2021/01/21 08:09:23;;;;;;;5.03;1.40;;;;;;;;;;10346570;28;20321;-70
2021/01/21 08:14:31;;;;;;;5.17;1.27;;;;;;;;;;10371853;28;20202;-70
2021/01/21 08:19:38;;;;;;;3.50;1.03;;;;;;;;;;10368812;28;20226;-69
2021/01/21 08:25:03;;;;;;;5.47;0.70;;;;;;;;;;10374235;28;20214;-69
2021/01/21 08:30:14;;;;;;;4.00;0.90;;;;;;;;;;10356603;28;20226;-70
2021/01/21 08:35:16;;;;;;;5.40;1.00;;;;;;;;;;10362331;28;20218;-69
2021/01/21 08:40:18;;;;;;;1.00;0.53;;;;;;;;;;10367821;28;20625;-69
2021/01/21 08:45:21;;;;;;;1.80;0.60;;;;;;;;;;10363202;28;20437;-69
2021/01/21 08:50:32;;;;;;;1.73;0.70;;;;;;;;;;10352642;28;20258;-69
2021/01/21 08:55:35;;;;;;;5.90;1.10;;;;;;;;;;10353558;28;20308;-69
2021/01/21 09:00:38;;;;;;;5.73;1.20;;;;;;;;;;10355051;28;20642;-70
2021/01/21 09:05:55;;;;;;;4.53;1.30;;;;;;;;;;10364024;28;20851;-70
2021/01/21 09:10:58;;;;;;;4.27;1.03;;;;;;;;;;10367394;28;20248;-68
2021/01/21 09:16:03;;;;;;;3.00;1.30;;;;;;;;;;10367348;28;20206;-69
2021/01/21 09:21:11;;;;;;;2.30;0.80;;;;;;;;;;10352289;28;20245;-71
2021/01/21 09:26:13;;;;;;;1.43;0.70;;;;;;;;;;10371436;28;20190;-68
2021/01/21 09:31:17;;;;;;;4.03;1.00;;;;;;;;;;10366174;28;20218;-70
2021/01/21 09:36:18;;;;;;;3.57;1.37;;;;;;;;;;10371677;28;20210;-72
2021/01/21 09:41:20;;;;;;;2.33;0.70;;;;;;;;;;10367851;28;20233;-70
2021/01/21 09:46:22;;;;;;;1.90;1.10;;;;;;;;;;10367443;28;20519;-69
2021/01/21 09:51:24;;;;;;;3.77;0.90;;;;;;;;;;10364123;28;20272;-70
2021/01/21 09:56:25;;;;;;;3.73;1.30;;;;;;;;;;10358924;28;20233;-70
2021/01/21 10:01:28;;;;;;;3.50;1.20;;;;;;;;;;10371761;28;20284;-70
2021/01/21 10:06:30;;;;;;;0.83;0.60;;;;;;;;;;10352847;28;20226;-70
2021/01/21 10:11:31;;;;;;;3.43;1.37;;;;;;;;;;10377657;28;20224;-70
2021/01/21 10:16:34;;;;;;;3.17;1.10;;;;;;;;;;10378659;28;20206;-70
2021/01/21 10:21:37;;;;;;;4.27;1.20;;;;;;;;;;10351574;28;20218;-70
2021/01/21 10:26:39;;;;;;;4.30;1.50;;;;;;;;;;10371141;28;20257;-70
2021/01/21 10:31:41;;;;;;;5.00;1.50;;;;;;;;;;10350887;28;20230;-70
2021/01/21 10:36:43;;;;;;;1.53;0.83;;;;;;;;;;10371429;28;20218;-70
2021/01/21 10:41:44;;;;;;;2.75;1.08;;;;;;;;;;10374906;28;20254;-70
2021/01/21 10:46:47;;;;;;;2.57;1.17;;;;;;;;;;10370315;28;20277;-70
2021/01/21 10:51:48;;;;;;;3.07;1.70;;;;;;;;;;10372999;28;20214;-71
2021/01/21 10:56:53;;;;;;;2.53;1.50;;;;;;;;;;10357650;28;20226;-69
2021/01/21 11:01:55;;;;;;;3.45;1.40;;;;;;;;;;10378361;28;20222;-71
2021/01/21 11:06:57;;;;;;;4.85;1.45;;;;;;;;;;10370413;28;20699;-70
2021/01/21 11:11:59;;;;;;;1.85;1.45;;;;;;;;;;10373459;28;21576;-71
2021/01/21 11:17:03;;;;;;;5.28;1.85;;;;;;;;;;10368741;28;20685;-70
2021/01/21 11:22:05;;;;;;;3.83;2.05;;;;;;;;;;10370871;28;20698;-71
2021/01/21 11:27:07;;;;;;;2.33;1.60;;;;;;;;;;10372010;28;20191;-70
2021/01/21 11:32:09;;;;;;;4.15;1.60;;;;;;;;;;10367168;28;20264;-71
2021/01/21 11:37:11;;;;;;;2.90;1.77;;;;;;;;;;10363890;28;20266;-71
2021/01/21 11:42:14;;;;;;;1.20;1.10;;;;;;;;;;10358681;28;20226;-70
2021/01/21 11:47:16;;;;;;;3.03;1.40;;;;;;;;;;10346298;28;20242;-69
2021/01/21 11:52:18;;;;;;;1.88;1.45;;;;;;;;;;10369541;28;20280;-71
2021/01/21 11:57:20;;;;;;;2.67;1.50;;;;;;;;;;10365391;28;20191;-70
2021/01/21 12:02:36;;;;;;;1.50;1.30;;;;;;;;;;10361650;28;20213;-70
2021/01/21 12:07:39;;;;;;;2.25;1.50;;;;;;;;;;10366413;28;20651;-71
2021/01/21 12:12:40;;;;;;;2.25;1.13;;;;;;;;;;10366280;28;20222;-69
2021/01/21 12:17:43;;;;;;;0.52;0.52;;;;;;;;;;10345703;28;20342;-70
2021/01/21 12:22:45;;;;;;;2.67;0.52;;;;;;;;;;10372294;28;20694;-71
2021/01/21 12:27:46;;;;;;;1.38;0.60;;;;;;;;;;10347033;28;20249;-71
2021/01/21 12:32:49;;;;;;;1.90;0.80;;;;;;;;;;10367682;28;20268;-71
2021/01/21 12:37:50;;;;;;;4.03;1.37;;;;;;;;;;10365467;28;20281;-70
2021/01/21 12:42:52;;;;;;;1.97;1.10;;;;;;;;;;10362938;28;20346;-70
2021/01/21 12:47:54;;;;;;;1.03;0.87;;;;;;;;;;10361455;28;20238;-70
2021/01/21 12:52:56;;;;;;;1.90;0.80;;;;;;;;;;10359935;28;20293;-69
2021/01/21 12:57:59;;;;;;;1.97;0.90;;;;;;;;;;10363779;28;20210;-70
2021/01/21 13:03:03;;;;;;;1.00;0.47;;;;;;;;;;10345552;28;20241;-70
2021/01/21 13:08:05;;;;;;;0.80;0.80;;;;;;;;;;10367448;28;20586;-69
2021/01/21 13:13:07;;;;;;;5.50;1.33;;;;;;;;;;10364069;28;20338;-72
2021/01/21 13:18:09;;;;;;;1.90;0.70;;;;;;;;;;10362419;28;20803;-70
2021/01/21 13:23:11;;;;;;;2.83;0.80;;;;;;;;;;10362948;28;20194;-69
2021/01/21 13:28:13;;;;;;;8.83;4.10;;;;;;;;;;10339315;28;21002;-70
2021/01/21 13:33:16;;;;;;;9.60;3.80;;;;;;;;;;10367132;28;20210;-70
2021/01/21 13:38:18;;;;;;;9.10;3.43;;;;;;;;;;10363195;28;20208;-71
2021/01/21 13:43:36;;;;;;;6.70;3.40;;;;;;;;;;10363533;28;20260;-70
2021/01/21 13:48:39;;;;;;;9.47;3.50;;;;;;;;;;10344833;28;20245;-71
2021/01/21 13:53:41;;;;;;;10.93;3.77;;;;;;;;;;10356691;28;20627;-71
2021/01/21 13:58:44;;;;;;;8.83;3.30;;;;;;;;;;10364675;28;20214;-70
2021/01/21 14:03:46;;;;;;;6.37;2.80;;;;;;;;;;10343480;28;20561;-70
2021/01/21 14:08:48;;;;;;;9.53;2.50;;;;;;;;;;10349688;28;20249;-69
2021/01/21 14:13:51;;;;;;;5.87;2.30;;;;;;;;;;10347861;28;20637;-70
2021/01/21 14:18:53;;;;;;;5.43;2.50;;;;;;;;;;10364835;28;20213;-70
2021/01/21 14:24:13;;;;;;;4.07;1.70;;;;;;;;;;10360194;28;20198;-69
2021/01/21 14:29:15;;;;;;;6.17;1.70;;;;;;;;;;10368673;28;20258;-71
2021/01/21 14:34:17;;;;;;;6.17;2.10;;;;;;;;;;10352846;28;20270;-71
2021/01/21 14:39:19;;;;;;;6.43;2.20;;;;;;;;;;10360547;28;20272;-68
2021/01/21 14:44:24;;;;;;;8.13;1.90;;;;;;;;;;10354253;28;20575;-69
2021/01/21 14:49:29;;;;;;;5.27;1.53;;;;;;;;;;10360733;28;20771;-69
2021/01/21 14:54:31;;;;;;;9.03;2.30;;;;;;;;;;10366754;28;20767;-69
2021/01/21 14:59:36;;;;;;;4.10;1.63;;;;;;;;;;10363627;28;20242;-70
2021/01/21 15:04:40;;;;;;;5.73;1.67;;;;;;;;;;10365589;28;20703;-69
2021/01/21 15:09:42;;;;;;;4.43;1.60;;;;;;;;;;10361960;28;20305;-69
2021/01/21 15:14:44;;;;;;;6.63;2.10;;;;;;;;;;10374088;28;20202;-70
2021/01/21 15:19:48;;;;;;;6.20;2.00;;;;;;;;;;10373299;28;20248;-70
2021/01/21 15:24:51;;;;;;;6.73;2.00;;;;;;;;;;10373355;28;20215;-71
2021/01/21 15:29:52;;;;;;;4.10;1.60;;;;;;;;;;10376016;28;20272;-70
2021/01/21 15:34:55;;;;;;;9.87;2.00;;;;;;;;;;10359172;28;20285;-70
2021/01/21 15:39:56;;;;;;;7.77;2.20;;;;;;;;;;10377813;28;20218;-70
2021/01/21 15:44:58;;;;;;;6.50;2.10;;;;;;;;;;10374751;28;20237;-70
2021/01/21 15:50:04;;;;;;;11.27;3.37;;;;;;;;;;10347932;28;20813;-70
2021/01/21 15:55:07;;;;;;;13.47;3.33;;;;;;;;;;10360231;28;20191;-70
2021/01/21 16:00:09;;;;;;;18.27;3.60;;;;;;;;;;10377735;28;20280;-72
2021/01/21 16:05:29;;;;;;;13.20;3.80;;;;;;;;;;10367661;28;20217;-70
2021/01/21 16:10:31;;;;;;;16.37;3.77;;;;;;;;;;10366553;28;20342;-69
2021/01/21 16:15:33;;;;;;;12.77;3.70;;;;;;;;;;10372606;28;20301;-69
2021/01/21 16:20:35;;;;;;;20.57;5.43;;;;;;;;;;10364214;28;20237;-70
2021/01/21 16:25:37;;;;;;;15.63;5.03;;;;;;;;;;10369898;28;20260;-69
2021/01/21 16:30:39;;;;;;;17.63;5.30;;;;;;;;;;10366490;28;20219;-71
2021/01/21 16:35:42;;;;;;;22.03;4.60;;;;;;;;;;10371887;28;20210;-72
2021/01/21 16:40:43;;;;;;;18.47;5.47;;;;;;;;;;10355042;28;20236;-69
2021/01/21 16:45:45;;;;;;;13.60;4.60;;;;;;;;;;10370207;28;20211;-70
2021/01/21 16:50:48;;;;;;;15.27;4.20;;;;;;;;;;10362969;28;20225;-70
2021/01/21 16:55:51;;;;;;;16.03;5.10;;;;;;;;;;10366015;28;20195;-71
2021/01/21 17:00:53;;;;;;;13.50;5.00;;;;;;;;;;10359685;28;20300;-70
2021/01/21 17:05:55;;;;;;;11.60;4.60;;;;;;;;;;10368922;28;20201;-71
2021/01/21 17:10:57;;;;;;;16.47;5.60;;;;;;;;;;10365511;28;20309;-69
2021/01/21 17:15:58;;;;;;;16.03;5.73;;;;;;;;;;10359052;28;20202;-71
2021/01/21 17:21:03;;;;;;;12.67;4.90;;;;;;;;;;10352917;28;20226;-67
2021/01/21 17:26:05;;;;;;;14.00;5.47;;;;;;;;;;10373883;28;20239;-69
2021/01/21 17:31:06;;;;;;;13.37;5.60;;;;;;;;;;10364730;28;20300;-70
2021/01/21 17:36:09;;;;;;;14.60;5.20;;;;;;;;;;10377134;28;20531;-70
2021/01/21 17:41:12;;;;;;;16.17;5.90;;;;;;;;;;10362910;28;20215;-69
2021/01/21 17:46:13;;;;;;;13.87;5.37;;;;;;;;;;10364415;28;20210;-71
2021/01/21 17:51:16;;;;;;;12.83;5.23;;;;;;;;;;10368356;28;20562;-69
2021/01/21 17:56:17;;;;;;;12.10;5.40;;;;;;;;;;10354843;28;20202;-70
2021/01/21 18:01:19;;;;;;;40.20;13.73;;;;;;;;;;10363110;28;20290;-69
2021/01/21 18:06:35;;;;;;;38.57;15.33;;;;;;;;;;10365384;28;20551;-69
2021/01/21 18:11:37;;;;;;;23.33;9.57;;;;;;;;;;10360601;28;20225;-71
2021/01/21 18:16:38;;;;;;;12.10;6.23;;;;;;;;;;10366525;28;20631;-70
2021/01/21 18:21:41;;;;;;;17.87;7.67;;;;;;;;;;10347693;28;20261;-71
2021/01/21 18:26:43;;;;;;;19.20;8.70;;;;;;;;;;10367047;28;20210;-71
2021/01/21 18:31:44;;;;;;;25.23;12.10;;;;;;;;;;10366194;28;20214;-71
2021/01/21 18:36:47;;;;;;;21.47;9.33;;;;;;;;;;10364052;28;20211;-70
2021/01/21 18:41:48;;;;;;;16.93;8.03;;;;;;;;;;10363392;28;20238;-71
2021/01/21 18:46:50;;;;;;;17.93;6.97;;;;;;;;;;10352639;28;20523;-72
2021/01/21 18:51:53;;;;;;;13.13;6.00;;;;;;;;;;10373918;28;20218;-71
2021/01/21 18:56:54;;;;;;;21.97;11.13;;;;;;;;;;10372852;28;20218;-72
2021/01/21 19:01:56;;;;;;;12.83;6.30;;;;;;;;;;10371672;28;20253;-70
2021/01/21 19:06:58;;;;;;;13.83;6.73;;;;;;;;;;10376491;28;20202;-70
2021/01/21 19:12:03;;;;;;;12.77;6.67;;;;;;;;;;10352743;28;20559;-69
2021/01/21 19:17:05;;;;;;;14.23;6.20;;;;;;;;;;10375092;28;20191;-70
2021/01/21 19:22:07;;;;;;;16.17;8.43;;;;;;;;;;10351646;28;20218;-69
2021/01/21 19:27:09;;;;;;;19.60;9.70;;;;;;;;;;10369622;28;20290;-71
2021/01/21 19:32:13;;;;;;;19.83;8.67;;;;;;;;;;10376430;28;20261;-71
2021/01/21 19:37:16;;;;;;;14.47;7.20;;;;;;;;;;10371670;28;20233;-69
2021/01/21 19:42:18;;;;;;;19.73;9.10;;;;;;;;;;10372049;28;20250;-70
2021/01/21 19:47:19;;;;;;;23.07;9.50;;;;;;;;;;10366378;28;20282;-70
2021/01/21 19:52:22;;;;;;;14.70;7.53;;;;;;;;;;10371029;28;20228;-69
2021/01/21 19:57:24;;;;;;;15.40;7.17;;;;;;;;;;10343203;28;20231;-69
2021/01/21 20:02:26;;;;;;;14.97;7.07;;;;;;;;;;10372962;28;20276;-72
2021/01/21 20:07:29;;;;;;;15.37;7.87;;;;;;;;;;10372225;28;20598;-70
2021/01/21 20:12:30;;;;;;;16.30;8.20;;;;;;;;;;10370715;28;20211;-71
2021/01/21 20:17:31;;;;;;;16.13;7.57;;;;;;;;;;10373239;28;20221;-71
2021/01/21 20:22:39;;;;;;;16.50;7.50;;;;;;;;;;10369075;28;20218;-72
2021/01/21 20:27:41;;;;;;;16.60;7.30;;;;;;;;;;10355470;28;20203;-71
2021/01/21 20:32:43;;;;;;;17.03;7.33;;;;;;;;;;10367505;28;20218;-72
2021/01/21 20:37:46;;;;;;;13.90;7.43;;;;;;;;;;10355702;28;20226;-70
2021/01/21 20:42:48;;;;;;;10.10;5.43;;;;;;;;;;10371783;28;20301;-69
2021/01/21 20:47:49;;;;;;;12.63;6.27;;;;;;;;;;10377931;28;20252;-70
2021/01/21 20:52:52;;;;;;;12.80;5.70;;;;;;;;;;10371058;28;20743;-71
2021/01/21 20:57:54;;;;;;;13.37;5.27;;;;;;;;;;10357315;28;20296;-71
2021/01/21 21:02:55;;;;;;;13.00;5.70;;;;;;;;;;10356293;28;20313;-73
2021/01/21 21:07:58;;;;;;;10.03;4.80;;;;;;;;;;10356991;28;20214;-71
2021/01/21 21:13:00;;;;;;;11.67;5.20;;;;;;;;;;10365505;28;20225;-72
2021/01/21 21:18:04;;;;;;;11.00;4.67;;;;;;;;;;10367197;28;20679;-71
2021/01/21 21:23:07;;;;;;;10.00;4.10;;;;;;;;;;10366711;28;20221;-71
2021/01/21 21:28:08;;;;;;;8.43;3.97;;;;;;;;;;10362824;28;20211;-71
2021/01/21 21:33:10;;;;;;;11.00;4.10;;;;;;;;;;10366156;28;20301;-71
2021/01/21 21:38:13;;;;;;;9.77;3.53;;;;;;;;;;10365307;28;20206;-71
2021/01/21 21:43:14;;;;;;;9.33;4.07;;;;;;;;;;10360683;28;20294;-70
2021/01/21 21:48:16;;;;;;;8.30;3.70;;;;;;;;;;10357397;28;20296;-69
2021/01/21 21:53:18;;;;;;;8.70;4.00;;;;;;;;;;10363840;28;20720;-70
2021/01/21 21:58:22;;;;;;;9.30;4.40;;;;;;;;;;10341863;28;20290;-67
2021/01/21 22:03:24;;;;;;;9.17;3.53;;;;;;;;;;10357050;28;20730;-69
2021/01/21 22:08:27;;;;;;;7.53;2.70;;;;;;;;;;10362285;28;20220;-70
2021/01/21 22:13:28;;;;;;;9.17;3.53;;;;;;;;;;10358746;28;20286;-68
2021/01/21 22:18:30;;;;;;;8.87;3.50;;;;;;;;;;10362550;28;20189;-69
2021/01/21 22:23:33;;;;;;;6.80;2.70;;;;;;;;;;10362267;28;20202;-68
2021/01/21 22:28:35;;;;;;;9.63;3.80;;;;;;;;;;10372133;28;20249;-68
2021/01/21 22:33:37;;;;;;;3.60;1.33;;;;;;;;;;10350046;28;20202;-70
2021/01/21 22:38:40;;;;;;;5.37;2.30;;;;;;;;;;10349961;28;20690;-70
2021/01/21 22:43:42;;;;;;;3.17;1.50;;;;;;;;;;10351352;28;20253;-69
2021/01/21 22:48:44;;;;;;;4.23;1.87;;;;;;;;;;10369120;28;20214;-68
2021/01/21 22:53:46;;;;;;;6.83;2.10;;;;;;;;;;10370151;28;20199;-68
2021/01/21 22:58:48;;;;;;;5.37;1.90;;;;;;;;;;10366684;28;20297;-70
2021/01/21 23:03:50;;;;;;;4.67;1.80;;;;;;;;;;10366441;28;20195;-69
2021/01/21 23:08:53;;;;;;;4.47;2.07;;;;;;;;;;10368913;28;20230;-68
2021/01/21 23:13:55;;;;;;;3.63;1.57;;;;;;;;;;10345695;28;20257;-70
2021/01/21 23:18:56;;;;;;;4.90;1.60;;;;;;;;;;10350343;28;20255;-70
2021/01/21 23:23:59;;;;;;;4.43;1.80;;;;;;;;;;10367139;28;20191;-70
2021/01/21 23:29:03;;;;;;;3.77;1.70;;;;;;;;;;10347174;28;20237;-69
2021/01/21 23:34:05;;;;;;;5.07;1.93;;;;;;;;;;10366126;28;20697;-69
2021/01/21 23:39:08;;;;;;;5.10;2.30;;;;;;;;;;10365317;28;20655;-69
2021/01/21 23:44:10;;;;;;;5.60;2.30;;;;;;;;;;10367288;28;20297;-68
2021/01/21 23:49:13;;;;;;;4.17;2.00;;;;;;;;;;10363786;28;20272;-68
2021/01/21 23:54:16;;;;;;;5.07;1.90;;;;;;;;;;10369282;28;20266;-69
2021/01/21 23:59:17;;;;;;;4.63;2.07;;;;;;;;;;10363773;28;20210;-70
